KAWO Airport Information

Runway Information
Runway 11 Length 3500 ft width 75 ft
Elevation 129 ft Threshold 0 ft Heading 127
Runway 29 Length 3500 ft Width 75 ft
Elevation 124 ft Threshold 0 ft Heading 307
Runway 16 Length 5333 ft width 100 ft
Elevation 137 ft Threshold 0 ft Heading 179
Runway 34 Length 5333 ft Width 100 ft
Elevation 123 ft Threshold 0 ft Heading 359
Airport Frequencies
Type AWOS Name AWOS 3 Frequency 135.625 MHZ
Type CNTR Name SEATTLE CN Frequency 128.5 MHZ
Type UNIC Name CTAF/UNICO Frequency 122.7 MHZ
Airport Navaids
Airport Weather Information & NOTAM
ADDS - METARS form results

(1531 UTC 18 October 2018)
Data provider http://aviationweather.gov/metar/data/
 
METAR text: KAWO 181456Z AUTO 00000KT 10SM CLR 04/03 A3017 RMK AO2 SLP220 T00390033 51006
Conditions at: KAWO (ARLINGTON MUNI , WA, US) observed 1456 UTC 18 October 2018
Temperature: 3.9°C (39°F)
Dewpoint: 3.3°C (38°F) [RH = 96%]
Pressure (altimeter): 30.17 inches Hg (1021.8 mb)
[Sea-level pressure: 1022.0 mb]
Winds: calm
Visibility: 10 or more miles (16+ km)
Ceiling: at least 12,000 feet AGL
Clouds: sky clear below 12,000 feet AGL
Weather: automated observation with no human augmentation;
there may or may not be significant weather present at this time